sensor_id;sensor_type;location;lat;lon;timestamp;pressure;altitude;pressure_sealevel;temperature;humidity
70254;BME280;57649;42.968;1.608;2023-03-15T00:01:32;97528.38;;;7.27;93.66
70254;BME280;57649;42.968;1.608;2023-03-15T00:03:57;97534.56;;;7.27;91.91
70254;BME280;57649;42.968;1.608;2023-03-15T00:06:23;97545.09;;;7.19;92.23
70254;BME280;57649;42.968;1.608;2023-03-15T00:08:48;97528.69;;;7.14;92.06
70254;BME280;57649;42.968;1.608;2023-03-15T00:11:15;97529.56;;;7.15;92.04
70254;BME280;57649;42.968;1.608;2023-03-15T00:13:41;97545.81;;;7.11;92.01
70254;BME280;57649;42.968;1.608;2023-03-15T00:16:07;97532.66;;;7.00;94.36
70254;BME280;57649;42.968;1.608;2023-03-15T00:18:32;97530.69;;;7.02;93.85
70254;BME280;57649;42.968;1.608;2023-03-15T00:20:58;97531.41;;;7.04;93.50
70254;BME280;57649;42.968;1.608;2023-03-15T00:23:23;97525.66;;;6.99;92.75
70254;BME280;57649;42.968;1.608;2023-03-15T00:25:50;97525.97;;;6.96;94.60
70254;BME280;57649;42.968;1.608;2023-03-15T00:28:16;97529.59;;;6.95;93.07
70254;BME280;57649;42.968;1.608;2023-03-15T00:30:42;97540.66;;;6.81;92.96
70254;BME280;57649;42.968;1.608;2023-03-15T00:33:08;97532.94;;;6.78;95.06
70254;BME280;57649;42.968;1.608;2023-03-15T00:35:41;97533.09;;;6.66;94.57
70254;BME280;57649;42.968;1.608;2023-03-15T00:38:07;97532.53;;;6.63;94.94
70254;BME280;57649;42.968;1.608;2023-03-15T00:40:33;97532.53;;;6.63;94.41
70254;BME280;57649;42.968;1.608;2023-03-15T00:42:59;97525.81;;;6.59;96.20
70254;BME280;57649;42.968;1.608;2023-03-15T00:45:25;97539.13;;;6.68;94.48
70254;BME280;57649;42.968;1.608;2023-03-15T00:47:52;97526.13;;;6.65;94.68
70254;BME280;57649;42.968;1.608;2023-03-15T00:50:19;97524.31;;;6.56;95.84
70254;BME280;57649;42.968;1.608;2023-03-15T00:52:44;97524.00;;;6.49;95.32
70254;BME280;57649;42.968;1.608;2023-03-15T00:55:14;97531.28;;;6.57;94.76
70254;BME280;57649;42.968;1.608;2023-03-15T00:57:43;97522.19;;;6.60;93.66
70254;BME280;57649;42.968;1.608;2023-03-15T01:00:15;97539.69;;;6.62;94.52
70254;BME280;57649;42.968;1.608;2023-03-15T01:02:41;97525.13;;;6.47;94.48
70254;BME280;57649;42.968;1.608;2023-03-15T01:05:08;97527.09;;;6.45;94.08
70254;BME280;57649;42.968;1.608;2023-03-15T01:07:34;97525.13;;;6.47;94.58
70254;BME280;57649;42.968;1.608;2023-03-15T01:10:03;97523.72;;;6.43;94.67
70254;BME280;57649;42.968;1.608;2023-03-15T01:12:30;97532.00;;;6.40;94.09
70254;BME280;57649;42.968;1.608;2023-03-15T01:15:00;97519.22;;;6.33;94.10
70254;BME280;57649;42.968;1.608;2023-03-15T01:17:26;97519.13;;;6.45;92.94
70254;BME280;57649;42.968;1.608;2023-03-15T01:19:51;97523.44;;;6.46;93.76
70254;BME280;57649;42.968;1.608;2023-03-15T01:22:18;97511.00;;;6.27;94.17
70254;BME280;57649;42.968;1.608;2023-03-15T01:24:43;97523.16;;;6.39;94.97
70254;BME280;57649;42.968;1.608;2023-03-15T01:27:09;97510.84;;;6.28;94.24
70254;BME280;57649;42.968;1.608;2023-03-15T01:29:34;97504.41;;;6.21;93.65
70254;BME280;57649;42.968;1.608;2023-03-15T01:32:00;97516.56;;;6.24;95.82
70254;BME280;57649;42.968;1.608;2023-03-15T01:34:25;97513.34;;;6.20;96.64
70254;BME280;57649;42.968;1.608;2023-03-15T01:36:51;97504.94;;;6.15;94.12
70254;BME280;57649;42.968;1.608;2023-03-15T01:39:17;97509.72;;;6.41;94.86
70254;BME280;57649;42.968;1.608;2023-03-15T01:41:42;97501.06;;;6.29;93.91
70254;BME280;57649;42.968;1.608;2023-03-15T01:44:13;97504.41;;;6.21;95.96
70254;BME280;57649;42.968;1.608;2023-03-15T01:46:39;97496.25;;;6.13;95.23
70254;BME280;57649;42.968;1.608;2023-03-15T01:49:27;97505.81;;;6.15;95.65
70254;BME280;57649;42.968;1.608;2023-03-15T01:52:17;97494.31;;;6.05;94.62
70254;BME280;57649;42.968;1.608;2023-03-15T01:55:09;97493.88;;;6.10;94.05
70254;BME280;57649;42.968;1.608;2023-03-15T01:57:43;97499.91;;;6.22;95.83
70254;BME280;57649;42.968;1.608;2023-03-15T02:00:16;97499.34;;;6.18;93.77
70254;BME280;57649;42.968;1.608;2023-03-15T02:02:57;97502.84;;;6.19;93.58
70254;BME280;57649;42.968;1.608;2023-03-15T02:05:26;97500.06;;;6.20;93.36
70254;BME280;57649;42.968;1.608;2023-03-15T02:07:53;97497.56;;;6.28;89.38
70254;BME280;57649;42.968;1.608;2023-03-15T02:10:26;97507.19;;;6.29;93.24
70254;BME280;57649;42.968;1.608;2023-03-15T02:12:55;97504.81;;;6.26;91.50
70254;BME280;57649;42.968;1.608;2023-03-15T02:15:22;97508.31;;;6.36;89.37
70254;BME280;57649;42.968;1.608;2023-03-15T02:17:48;97506.50;;;6.37;91.25
70254;BME280;57649;42.968;1.608;2023-03-15T02:23:06;97490.84;;;6.44;91.81
70254;BME280;57649;42.968;1.608;2023-03-15T02:28:33;97474.03;;;6.72;83.60
70254;BME280;57649;42.968;1.608;2023-03-15T02:30:59;97458.44;;;6.78;88.23
70254;BME280;57649;42.968;1.608;2023-03-15T02:33:31;97463.47;;;7.00;83.88
70254;BME280;57649;42.968;1.608;2023-03-15T02:36:25;97455.75;;;6.97;84.65
70254;BME280;57649;42.968;1.608;2023-03-15T02:38:51;97466.13;;;6.90;85.94
70254;BME280;57649;42.968;1.608;2023-03-15T02:41:20;97468.66;;;7.02;86.35
70254;BME280;57649;42.968;1.608;2023-03-15T02:43:51;97473.56;;;6.97;86.63
70254;BME280;57649;42.968;1.608;2023-03-15T02:46:18;97472.56;;;6.98;88.54
70254;BME280;57649;42.968;1.608;2023-03-15T02:48:45;97477.50;;;6.92;88.99
70254;BME280;57649;42.968;1.608;2023-03-15T02:51:23;97467.41;;;6.96;83.33
70254;BME280;57649;42.968;1.608;2023-03-15T02:53:48;97464.88;;;7.32;82.74
70254;BME280;57649;42.968;1.608;2023-03-15T02:56:15;97471.00;;;7.15;85.21
70254;BME280;57649;42.968;1.608;2023-03-15T02:58:41;97461.72;;;7.19;82.29
70254;BME280;57649;42.968;1.608;2023-03-15T03:01:10;97467.97;;;6.90;89.79
70254;BME280;57649;42.968;1.608;2023-03-15T03:03:38;97470.50;;;6.82;90.02
70254;BME280;57649;42.968;1.608;2023-03-15T03:06:03;97463.31;;;6.92;86.50
70254;BME280;57649;42.968;1.608;2023-03-15T03:08:28;97468.16;;;7.16;84.87
70254;BME280;57649;42.968;1.608;2023-03-15T03:10:54;97458.59;;;7.23;85.45
70254;BME280;57649;42.968;1.608;2023-03-15T03:13:19;97437.44;;;7.31;83.37
70254;BME280;57649;42.968;1.608;2023-03-15T03:15:44;97456.38;;;8.02;79.78
70254;BME280;57649;42.968;1.608;2023-03-15T03:18:13;97433.03;;;7.68;83.00
70254;BME280;57649;42.968;1.608;2023-03-15T03:20:38;97446.56;;;7.84;83.85
70254;BME280;57649;42.968;1.608;2023-03-15T03:23:04;97428.28;;;7.62;82.38
70254;BME280;57649;42.968;1.608;2023-03-15T03:25:31;97441.13;;;7.76;83.93
70254;BME280;57649;42.968;1.608;2023-03-15T03:27:57;97442.94;;;7.76;82.81
70254;BME280;57649;42.968;1.608;2023-03-15T03:30:23;97439.34;;;7.67;83.32
70254;BME280;57649;42.968;1.608;2023-03-15T03:32:49;97444.69;;;7.67;82.83
70254;BME280;57649;42.968;1.608;2023-03-15T03:35:14;97450.63;;;7.61;84.95
70254;BME280;57649;42.968;1.608;2023-03-15T03:37:40;97459.91;;;7.57;84.30
70254;BME280;57649;42.968;1.608;2023-03-15T03:40:06;97456.78;;;7.61;85.63
70254;BME280;57649;42.968;1.608;2023-03-15T03:42:34;97464.97;;;7.50;85.52
70254;BME280;57649;42.968;1.608;2023-03-15T03:44:59;97460.78;;;7.47;88.49
70254;BME280;57649;42.968;1.608;2023-03-15T03:47:24;97466.41;;;7.44;87.58
70254;BME280;57649;42.968;1.608;2023-03-15T03:49:50;97480.88;;;7.32;88.24
70254;BME280;57649;42.968;1.608;2023-03-15T03:52:15;97480.44;;;7.37;87.22
70254;BME280;57649;42.968;1.608;2023-03-15T03:54:41;97487.69;;;7.44;85.85
70254;BME280;57649;42.968;1.608;2023-03-15T03:57:07;97475.22;;;7.45;85.03
70254;BME280;57649;42.968;1.608;2023-03-15T03:59:33;97477.91;;;7.35;85.88
70254;BME280;57649;42.968;1.608;2023-03-15T04:01:58;97486.69;;;7.45;86.64
70254;BME280;57649;42.968;1.608;2023-03-15T04:04:23;97474.53;;;7.43;84.96
70254;BME280;57649;42.968;1.608;2023-03-15T04:06:50;97481.03;;;7.58;85.36
70254;BME280;57649;42.968;1.608;2023-03-15T04:09:16;97481.03;;;7.58;84.86
70254;BME280;57649;42.968;1.608;2023-03-15T04:11:42;97481.69;;;7.70;83.63
70254;BME280;57649;42.968;1.608;2023-03-15T04:14:12;97493.38;;;7.87;83.18
70254;BME280;57649;42.968;1.608;2023-03-15T04:16:39;97493.31;;;7.97;81.54
70254;BME280;57649;42.968;1.608;2023-03-15T04:19:05;97487.88;;;8.16;80.64
70254;BME280;57649;42.968;1.608;2023-03-15T04:21:31;97493.56;;;8.03;84.98
70254;BME280;57649;42.968;1.608;2023-03-15T04:24:00;97492.72;;;8.03;85.08
70254;BME280;57649;42.968;1.608;2023-03-15T04:26:29;97482.38;;;8.00;85.56
70254;BME280;57649;42.968;1.608;2023-03-15T04:28:56;97485.81;;;8.10;85.07
70254;BME280;57649;42.968;1.608;2023-03-15T04:31:23;97490.28;;;8.09;82.45
70254;BME280;57649;42.968;1.608;2023-03-15T04:33:53;97479.59;;;8.37;77.74
70254;BME280;57649;42.968;1.608;2023-03-15T04:36:19;97484.09;;;8.55;80.30
70254;BME280;57649;42.968;1.608;2023-03-15T04:38:45;97491.91;;;8.48;82.68
70254;BME280;57649;42.968;1.608;2023-03-15T04:41:14;97495.84;;;8.44;83.10
70254;BME280;57649;42.968;1.608;2023-03-15T04:43:40;97492.75;;;8.39;82.10
70254;BME280;57649;42.968;1.608;2023-03-15T04:46:06;97506.59;;;8.52;82.92
70254;BME280;57649;42.968;1.608;2023-03-15T04:48:32;97502.56;;;8.48;81.37
70254;BME280;57649;42.968;1.608;2023-03-15T04:50:57;97495.53;;;8.65;81.01
70254;BME280;57649;42.968;1.608;2023-03-15T04:53:23;97494.63;;;8.56;83.86
70254;BME280;57649;42.968;1.608;2023-03-15T04:55:48;97504.91;;;8.51;82.89
70254;BME280;57649;42.968;1.608;2023-03-15T04:58:14;97501.03;;;8.45;82.99
70254;BME280;57649;42.968;1.608;2023-03-15T05:00:39;97500.94;;;8.55;83.22
70254;BME280;57649;42.968;1.608;2023-03-15T05:03:04;97508.34;;;8.61;80.11
70254;BME280;57649;42.968;1.608;2023-03-15T05:05:32;97502.25;;;8.69;77.74
70254;BME280;57649;42.968;1.608;2023-03-15T05:07:58;97493.16;;;8.80;78.15
70254;BME280;57649;42.968;1.608;2023-03-15T05:10:23;97486.59;;;8.92;75.90
70254;BME280;57649;42.968;1.608;2023-03-15T05:12:50;97488.09;;;8.95;78.34
70254;BME280;57649;42.968;1.608;2023-03-15T05:15:15;97496.56;;;8.90;79.92
70254;BME280;57649;42.968;1.608;2023-03-15T05:17:41;97496.81;;;8.79;82.60
70254;BME280;57649;42.968;1.608;2023-03-15T05:20:07;97493.16;;;8.62;83.46
70254;BME280;57649;42.968;1.608;2023-03-15T05:22:37;97497.44;;;8.55;84.37
70254;BME280;57649;42.968;1.608;2023-03-15T05:25:02;97509.28;;;8.52;81.93
70254;BME280;57649;42.968;1.608;2023-03-15T05:27:28;97506.13;;;8.57;83.72
70254;BME280;57649;42.968;1.608;2023-03-15T05:29:54;97500.88;;;8.83;77.31
70254;BME280;57649;42.968;1.608;2023-03-15T05:32:19;97512.69;;;9.06;76.34
70254;BME280;57649;42.968;1.608;2023-03-15T05:34:50;97494.38;;;9.12;75.55
70254;BME280;57649;42.968;1.608;2023-03-15T05:37:20;97518.34;;;9.21;74.94
70254;BME280;57649;42.968;1.608;2023-03-15T05:39:45;97508.13;;;9.17;77.60
70254;BME280;57649;42.968;1.608;2023-03-15T05:42:10;97510.50;;;9.02;81.15
70254;BME280;57649;42.968;1.608;2023-03-15T05:44:36;97525.94;;;8.90;82.88
70254;BME280;57649;42.968;1.608;2023-03-15T05:47:01;97525.19;;;8.98;83.68
70254;BME280;57649;42.968;1.608;2023-03-15T05:49:26;97511.53;;;8.83;83.33
70254;BME280;57649;42.968;1.608;2023-03-15T05:51:52;97525.56;;;8.85;82.63
70254;BME280;57649;42.968;1.608;2023-03-15T05:54:17;97523.19;;;8.82;83.68
70254;BME280;57649;42.968;1.608;2023-03-15T05:56:42;97522.13;;;8.75;87.21
70254;BME280;57649;42.968;1.608;2023-03-15T05:59:08;97525.34;;;8.78;88.73
70254;BME280;57649;42.968;1.608;2023-03-15T06:01:33;97520.41;;;8.65;90.58
70254;BME280;57649;42.968;1.608;2023-03-15T06:03:58;97511.31;;;8.58;92.42
70254;BME280;57649;42.968;1.608;2023-03-15T06:06:24;97515.59;;;8.51;90.44
70254;BME280;57649;42.968;1.608;2023-03-15T06:08:49;97526.66;;;8.56;88.01
70254;BME280;57649;42.968;1.608;2023-03-15T06:11:15;97520.94;;;8.69;88.20
70254;BME280;57649;42.968;1.608;2023-03-15T06:13:40;97520.41;;;8.65;89.34
70254;BME280;57649;42.968;1.608;2023-03-15T06:16:06;97515.59;;;8.69;92.01
70254;BME280;57649;42.968;1.608;2023-03-15T06:18:31;97519.94;;;8.52;95.50
70254;BME280;57649;42.968;1.608;2023-03-15T06:20:56;97514.75;;;8.51;95.61
70254;BME280;57649;42.968;1.608;2023-03-15T06:23:22;97535.84;;;8.44;97.00
70254;BME280;57649;42.968;1.608;2023-03-15T06:25:47;97523.09;;;8.38;96.39
70254;BME280;57649;42.968;1.608;2023-03-15T06:28:13;97506.75;;;8.51;94.68
70254;BME280;57649;42.968;1.608;2023-03-15T06:30:38;97514.59;;;8.52;92.50
70254;BME280;57649;42.968;1.608;2023-03-15T06:33:05;97521.00;;;8.59;91.97
70254;BME280;57649;42.968;1.608;2023-03-15T06:35:30;97527.78;;;8.72;94.71
70254;BME280;57649;42.968;1.608;2023-03-15T06:37:55;97539.00;;;8.57;96.54
70254;BME280;57649;42.968;1.608;2023-03-15T06:40:21;97517.63;;;8.39;98.19
70254;BME280;57649;42.968;1.608;2023-03-15T06:42:46;97528.97;;;8.41;99.78
70254;BME280;57649;42.968;1.608;2023-03-15T06:45:12;97532.50;;;8.42;100.00
70254;BME280;57649;42.968;1.608;2023-03-15T06:47:37;97531.00;;;8.29;99.59
70254;BME280;57649;42.968;1.608;2023-03-15T06:50:03;97539.38;;;8.44;100.00
70254;BME280;57649;42.968;1.608;2023-03-15T06:52:28;97533.09;;;8.36;100.00
70254;BME280;57649;42.968;1.608;2023-03-15T06:54:54;97533.78;;;8.38;100.00
70254;BME280;57649;42.968;1.608;2023-03-15T06:57:19;97552.34;;;8.57;100.00
70254;BME280;57649;42.968;1.608;2023-03-15T06:59:45;97539.06;;;8.47;93.60
70254;BME280;57649;42.968;1.608;2023-03-15T07:02:16;97529.63;;;8.71;94.43
70254;BME280;57649;42.968;1.608;2023-03-15T07:04:42;97540.53;;;8.78;94.80
70254;BME280;57649;42.968;1.608;2023-03-15T07:07:11;97527.16;;;8.96;94.17
70254;BME280;57649;42.968;1.608;2023-03-15T07:09:37;97520.81;;;8.97;93.68
70254;BME280;57649;42.968;1.608;2023-03-15T07:12:03;97524.66;;;8.94;95.89
70254;BME280;57649;42.968;1.608;2023-03-15T07:14:29;97535.31;;;8.94;96.03
70254;BME280;57649;42.968;1.608;2023-03-15T07:16:54;97530.59;;;8.88;96.79
70254;BME280;57649;42.968;1.608;2023-03-15T07:19:20;97536.66;;;8.72;98.70
70254;BME280;57649;42.968;1.608;2023-03-15T07:21:45;97541.59;;;8.85;96.87
70254;BME280;57649;42.968;1.608;2023-03-15T07:24:11;97548.75;;;8.84;98.06
70254;BME280;57649;42.968;1.608;2023-03-15T07:26:36;97551.59;;;8.83;97.67
70254;BME280;57649;42.968;1.608;2023-03-15T07:29:02;97553.38;;;9.00;98.23
70254;BME280;57649;42.968;1.608;2023-03-15T07:31:27;97553.63;;;9.07;97.17
70254;BME280;57649;42.968;1.608;2023-03-15T07:33:53;97561.94;;;9.04;96.18
70254;BME280;57649;42.968;1.608;2023-03-15T07:36:18;97576.03;;;9.14;96.93
70254;BME280;57649;42.968;1.608;2023-03-15T07:38:43;97574.34;;;9.13;97.32
70254;BME280;57649;42.968;1.608;2023-03-15T07:41:09;97580.47;;;9.23;98.59
70254;BME280;57649;42.968;1.608;2023-03-15T07:43:34;97571.97;;;9.28;95.92
70254;BME280;57649;42.968;1.608;2023-03-15T07:46:00;97575.84;;;9.34;96.04
70254;BME280;57649;42.968;1.608;2023-03-15T07:48:26;97580.03;;;9.36;94.49
70254;BME280;57649;42.968;1.608;2023-03-15T07:50:53;97583.31;;;9.30;94.21
70254;BME280;57649;42.968;1.608;2023-03-15T07:53:18;97583.44;;;9.47;92.95
70254;BME280;57649;42.968;1.608;2023-03-15T07:55:46;97582.75;;;9.44;92.59
70254;BME280;57649;42.968;1.608;2023-03-15T07:58:11;97578.78;;;9.49;93.73
70254;BME280;57649;42.968;1.608;2023-03-15T08:00:37;97559.63;;;9.27;95.06
70254;BME280;57649;42.968;1.608;2023-03-15T08:03:03;97554.97;;;9.11;94.57
70254;BME280;57649;42.968;1.608;2023-03-15T08:05:29;97556.50;;;9.14;94.23
70254;BME280;57649;42.968;1.608;2023-03-15T08:07:55;97558.84;;;9.17;94.84
70254;BME280;57649;42.968;1.608;2023-03-15T08:10:20;97563.91;;;9.20;93.17
70254;BME280;57649;42.968;1.608;2023-03-15T08:12:46;97556.84;;;9.37;94.64
70254;BME280;57649;42.968;1.608;2023-03-15T08:15:13;97550.75;;;9.53;88.50
70254;BME280;57649;42.968;1.608;2023-03-15T08:17:39;97545.41;;;9.53;89.47
70254;BME280;57649;42.968;1.608;2023-03-15T08:20:06;97555.78;;;9.56;90.72
70254;BME280;57649;42.968;1.608;2023-03-15T08:22:35;97552.88;;;9.75;92.12
70254;BME280;57649;42.968;1.608;2023-03-15T08:25:00;97556.91;;;9.79;90.62
70254;BME280;57649;42.968;1.608;2023-03-15T08:27:26;97559.94;;;9.85;88.19
70254;BME280;57649;42.968;1.608;2023-03-15T08:29:51;97557.72;;;9.72;88.23
70254;BME280;57649;42.968;1.608;2023-03-15T08:32:18;97553.31;;;9.97;88.43
70254;BME280;57649;42.968;1.608;2023-03-15T08:34:44;97554.22;;;10.14;90.44
70254;BME280;57649;42.968;1.608;2023-03-15T08:37:10;97557.00;;;9.96;82.94
70254;BME280;57649;42.968;1.608;2023-03-15T08:39:39;97564.09;;;10.13;87.38
70254;BME280;57649;42.968;1.608;2023-03-15T08:42:05;97548.72;;;10.24;82.40
70254;BME280;57649;42.968;1.608;2023-03-15T08:44:31;97545.50;;;10.46;83.37
70254;BME280;57649;42.968;1.608;2023-03-15T08:46:56;97549.19;;;10.53;84.05
70254;BME280;57649;42.968;1.608;2023-03-15T08:49:21;97546.88;;;10.75;84.94
70254;BME280;57649;42.968;1.608;2023-03-15T08:51:47;97547.06;;;10.82;83.62
70254;BME280;57649;42.968;1.608;2023-03-15T08:54:12;97557.44;;;11.17;84.10
70254;BME280;57649;42.968;1.608;2023-03-15T08:56:41;97554.59;;;11.27;81.72
70254;BME280;57649;42.968;1.608;2023-03-15T08:59:07;97556.19;;;11.61;80.03
70254;BME280;57649;42.968;1.608;2023-03-15T09:01:33;97556.97;;;12.03;78.20
70254;BME280;57649;42.968;1.608;2023-03-15T09:03:59;97550.06;;;12.71;77.32
70254;BME280;57649;42.968;1.608;2023-03-15T09:06:25;97561.63;;;12.48;76.01
70254;BME280;57649;42.968;1.608;2023-03-15T09:08:51;97556.56;;;12.22;75.42
70254;BME280;57649;42.968;1.608;2023-03-15T09:11:18;97559.63;;;12.11;76.32
70254;BME280;57649;42.968;1.608;2023-03-15T09:13:44;97565.31;;;12.08;75.15
70254;BME280;57649;42.968;1.608;2023-03-15T09:16:09;97565.41;;;11.75;76.33
70254;BME280;57649;42.968;1.608;2023-03-15T09:18:34;97566.75;;;11.63;77.13
70254;BME280;57649;42.968;1.608;2023-03-15T09:21:00;97574.81;;;11.63;75.96
70254;BME280;57649;42.968;1.608;2023-03-15T09:23:25;97585.00;;;11.75;77.14
70254;BME280;57649;42.968;1.608;2023-03-15T09:25:51;97585.00;;;11.84;78.60
70254;BME280;57649;42.968;1.608;2023-03-15T09:28:17;97580.28;;;11.86;77.64
70254;BME280;57649;42.968;1.608;2023-03-15T09:30:42;97568.53;;;12.03;76.79
70254;BME280;57649;42.968;1.608;2023-03-15T09:33:08;97580.78;;;11.98;75.50
70254;BME280;57649;42.968;1.608;2023-03-15T09:35:33;97576.41;;;12.05;76.39
70254;BME280;57649;42.968;1.608;2023-03-15T09:37:59;97590.34;;;11.92;76.31
70254;BME280;57649;42.968;1.608;2023-03-15T09:40:32;97601.28;;;12.38;75.82
70254;BME280;57649;42.968;1.608;2023-03-15T09:51:40;97597.56;;;12.70;77.65
70254;BME280;57649;42.968;1.608;2023-03-15T09:54:14;97587.56;;;12.56;74.83
70254;BME280;57649;42.968;1.608;2023-03-15T09:56:42;97575.91;;;12.72;75.93
70254;BME280;57649;42.968;1.608;2023-03-15T09:59:11;97579.47;;;12.96;75.11
70254;BME280;57649;42.968;1.608;2023-03-15T10:01:39;97568.56;;;12.66;74.93
70254;BME280;57649;42.968;1.608;2023-03-15T10:04:11;97581.53;;;12.62;74.19
70254;BME280;57649;42.968;1.608;2023-03-15T10:06:40;97578.38;;;12.50;74.76
70254;BME280;57649;42.968;1.608;2023-03-15T10:09:14;97581.78;;;12.76;73.09
70254;BME280;57649;42.968;1.608;2023-03-15T10:20:29;97586.03;;;12.93;74.44
70254;BME280;57649;42.968;1.608;2023-03-15T10:25:26;97571.13;;;13.52;69.77
70254;BME280;57649;42.968;1.608;2023-03-15T10:28:04;97575.44;;;14.05;69.53
70254;BME280;57649;42.968;1.608;2023-03-15T10:30:36;97578.50;;;14.17;67.82
70254;BME280;57649;42.968;1.608;2023-03-15T10:33:27;97575.00;;;14.53;66.56
70254;BME280;57649;42.968;1.608;2023-03-15T10:35:49;97572.41;;;14.96;71.21
70254;BME280;57649;42.968;1.608;2023-03-15T10:38:16;97581.28;;;13.94;73.03
70254;BME280;57649;42.968;1.608;2023-03-15T10:40:58;97569.75;;;13.56;71.89
70254;BME280;57649;42.968;1.608;2023-03-15T10:43:26;97573.28;;;13.56;75.60
70254;BME280;57649;42.968;1.608;2023-03-15T10:46:07;97575.16;;;14.15;74.15
70254;BME280;57649;42.968;1.608;2023-03-15T10:48:51;97563.47;;;13.93;75.31
70254;BME280;57649;42.968;1.608;2023-03-15T10:51:32;97560.94;;;14.06;73.16
70254;BME280;57649;42.968;1.608;2023-03-15T10:54:26;97564.41;;;13.85;72.45
70254;BME280;57649;42.968;1.608;2023-03-15T10:57:04;97567.63;;;13.28;74.12
70254;BME280;57649;42.968;1.608;2023-03-15T10:59:34;97564.16;;;13.19;74.77
70254;BME280;57649;42.968;1.608;2023-03-15T11:02:18;97568.63;;;13.04;76.43
70254;BME280;57649;42.968;1.608;2023-03-15T11:05:38;97557.63;;;13.90;73.19
70254;BME280;57649;42.968;1.608;2023-03-15T11:07:34;97559.66;;;14.02;71.72
70254;BME280;57649;42.968;1.608;2023-03-15T11:10:02;97554.63;;;14.29;71.83
70254;BME280;57649;42.968;1.608;2023-03-15T11:12:30;97559.47;;;14.19;69.21
70254;BME280;57649;42.968;1.608;2023-03-15T11:14:59;97554.09;;;13.89;71.70
70254;BME280;57649;42.968;1.608;2023-03-15T11:17:27;97547.78;;;14.63;68.58
70254;BME280;57649;42.968;1.608;2023-03-15T11:19:59;97552.31;;;14.26;71.02
70254;BME280;57649;42.968;1.608;2023-03-15T11:22:34;97555.19;;;14.10;71.65
70254;BME280;57649;42.968;1.608;2023-03-15T11:24:59;97542.03;;;13.85;70.89
70254;BME280;57649;42.968;1.608;2023-03-15T11:27:25;97550.19;;;13.77;71.78
70254;BME280;57649;42.968;1.608;2023-03-15T11:29:55;97538.41;;;13.78;72.23
70254;BME280;57649;42.968;1.608;2023-03-15T11:32:27;97538.16;;;13.35;72.24
70254;BME280;57649;42.968;1.608;2023-03-15T11:37:52;97543.84;;;13.40;72.69
70254;BME280;57649;42.968;1.608;2023-03-15T11:40:37;97540.63;;;13.21;72.61
70254;BME280;57649;42.968;1.608;2023-03-15T11:45:55;97524.97;;;14.44;69.26
70254;BME280;57649;42.968;1.608;2023-03-15T11:48:35;97531.00;;;14.61;67.82
70254;BME280;57649;42.968;1.608;2023-03-15T11:51:05;97515.41;;;14.78;66.76
70254;BME280;57649;42.968;1.608;2023-03-15T11:53:39;97511.03;;;15.48;65.69
70254;BME280;57649;42.968;1.608;2023-03-15T11:56:24;97512.78;;;15.06;64.53
70254;BME280;57649;42.968;1.608;2023-03-15T11:59:07;97523.72;;;14.61;66.84
70254;BME280;57649;42.968;1.608;2023-03-15T12:01:35;97519.56;;;14.08;67.44
70254;BME280;57649;42.968;1.608;2023-03-15T12:06:48;97517.34;;;13.96;71.80
70254;BME280;57649;42.968;1.608;2023-03-15T12:12:03;97509.19;;;14.77;69.86
70254;BME280;57649;42.968;1.608;2023-03-15T12:14:31;97499.78;;;14.52;69.06
70254;BME280;57649;42.968;1.608;2023-03-15T12:20:07;97478.56;;;15.07;67.91
70254;BME280;57649;42.968;1.608;2023-03-15T12:22:34;97476.50;;;14.87;67.56
70254;BME280;57649;42.968;1.608;2023-03-15T12:27:51;97465.72;;;14.87;68.19
70254;BME280;57649;42.968;1.608;2023-03-15T12:30:30;97462.31;;;14.57;69.07
70254;BME280;57649;42.968;1.608;2023-03-15T12:32:56;97453.19;;;14.15;68.54
70254;BME280;57649;42.968;1.608;2023-03-15T12:35:28;97457.53;;;14.74;68.48
70254;BME280;57649;42.968;1.608;2023-03-15T12:37:54;97439.09;;;14.99;66.15
70254;BME280;57649;42.968;1.608;2023-03-15T12:40:54;97451.97;;;14.75;66.95
70254;BME280;57649;42.968;1.608;2023-03-15T12:43:38;97452.22;;;14.22;69.01
70254;BME280;57649;42.968;1.608;2023-03-15T12:46:06;97443.94;;;13.88;70.39
70254;BME280;57649;42.968;1.608;2023-03-15T12:48:32;97451.47;;;13.77;70.70
70254;BME280;57649;42.968;1.608;2023-03-15T12:51:00;97433.13;;;13.66;70.57
70254;BME280;57649;42.968;1.608;2023-03-15T12:58:51;97424.25;;;14.02;68.77
70254;BME280;57649;42.968;1.608;2023-03-15T13:01:18;97422.53;;;14.16;67.91
70254;BME280;57649;42.968;1.608;2023-03-15T13:03:43;97416.28;;;13.94;68.10
70254;BME280;57649;42.968;1.608;2023-03-15T13:07:12;97415.22;;;14.10;68.68
70254;BME280;57649;42.968;1.608;2023-03-15T13:12:22;97414.41;;;14.09;67.97
70254;BME280;57649;42.968;1.608;2023-03-15T13:15:08;97405.94;;;13.76;69.04
70254;BME280;57649;42.968;1.608;2023-03-15T13:17:51;97399.97;;;13.80;69.12
70254;BME280;57649;42.968;1.608;2023-03-15T13:28:37;97377.63;;;14.16;68.49
70254;BME280;57649;42.968;1.608;2023-03-15T13:31:23;97377.53;;;14.10;67.95
70254;BME280;57649;42.968;1.608;2023-03-15T13:33:51;97372.22;;;14.16;68.05
70254;BME280;57649;42.968;1.608;2023-03-15T13:36:38;97369.09;;;14.13;65.97
70254;BME280;57649;42.968;1.608;2023-03-15T13:39:13;97362.16;;;14.03;65.23
70254;BME280;57649;42.968;1.608;2023-03-15T13:41:40;97354.47;;;14.22;66.35
70254;BME280;57649;42.968;1.608;2023-03-15T13:44:16;97365.09;;;14.30;65.82
70254;BME280;57649;42.968;1.608;2023-03-15T13:46:42;97355.03;;;14.39;65.58
70254;BME280;57649;42.968;1.608;2023-03-15T13:49:10;97356.75;;;14.47;65.22
70254;BME280;57649;42.968;1.608;2023-03-15T13:51:37;97346.63;;;14.70;65.42
70254;BME280;57649;42.968;1.608;2023-03-15T13:54:06;97344.97;;;14.69;65.72
70254;BME280;57649;42.968;1.608;2023-03-15T13:56:34;97349.75;;;14.52;65.36
70254;BME280;57649;42.968;1.608;2023-03-15T13:59:02;97337.66;;;14.63;65.16
70254;BME280;57649;42.968;1.608;2023-03-15T14:01:29;97341.19;;;14.63;64.53
70254;BME280;57649;42.968;1.608;2023-03-15T14:04:05;97333.69;;;14.59;64.79
70254;BME280;57649;42.968;1.608;2023-03-15T14:06:32;97339.34;;;14.64;64.71
70254;BME280;57649;42.968;1.608;2023-03-15T14:09:08;97335.84;;;14.70;64.49
70254;BME280;57649;42.968;1.608;2023-03-15T14:11:38;97333.94;;;14.64;64.35
70254;BME280;57649;42.968;1.608;2023-03-15T14:14:23;97329.47;;;14.78;63.24